Portada
METAR-TAF:

METAR-TAF

Aeroports :

Sharurah, Aràbia Saudita

latitud: 17-28N, longitud: 047-07E, altitud: 720 m

Observació

L'informe es va fer fa 1 hora i 1 minuts, a les 22:00 UTC
Vent 5 kt del Nord-Est
Temperatura 18°C
Humitat 34%
Pressió 1018 hPa
Visibilitat 10 km o més
sense núvols per sota de 1500 mi sense presència de cumulonimbus.

METAR: OESH 202200Z 04005KT CAVOK 18/02 Q1018 NOSIG

Hora: 02:01 (23:01 UTC)

Pronòstic

L'informe es va fer fa 12 hores i 1 minuts, a les 11:00 UTC
Pronòstic vàlid del 20 a les 12 UTC al 21 a les 18 UTC
Vent 10 kt del Nord-Est
Visibilitat 10 km o més
sense núvols per sota de 1500 mi sense presència de cumulonimbus.
Evolucionant progressivament
l' 20 a les 18 UTC al 20 a les 20 UTC
Vent 3 kt amb direcció variable

TAF: OESH 201100Z 2012/2118 04010KT CAVOK BECMG 2018/2020 VRB03KT

Observacions i pronòstics meteorològics de més de 4000 aeroports (METAR i TAF).

Les estacions disponibles són els punts grocs i vermells al mapa.

Posi el ratolí al punt desitjat per veure el nom de l'estació.

Feu clic per veure les observacions i els pronòstics meteorològics.

Per canviar el mapa: feu clic els botons verds amb una creu de color negre per apropar; al botó verd amb un guió per allunyar la imatge; o en les fletxes verdes per a mapes adjacents.


METAR-TAF: